sensor_id;sensor_type;location;lat;lon;timestamp;P1;durP1;ratioP1;P2;durP2;ratioP2
24761;SDS011;12865;51.934;10.330;2023-05-17T00:00:53;6.28;;;3.92;;
24761;SDS011;12865;51.934;10.330;2023-05-17T00:03:39;7.65;;;4.15;;
24761;SDS011;12865;51.934;10.330;2023-05-17T00:06:24;10.50;;;3.88;;
24761;SDS011;12865;51.934;10.330;2023-05-17T00:09:10;10.60;;;3.97;;
24761;SDS011;12865;51.934;10.330;2023-05-17T00:11:56;10.18;;;4.10;;
24761;SDS011;12865;51.934;10.330;2023-05-17T00:14:41;9.27;;;4.25;;
24761;SDS011;12865;51.934;10.330;2023-05-17T00:17:27;10.00;;;3.70;;
24761;SDS011;12865;51.934;10.330;2023-05-17T00:20:13;10.10;;;3.92;;
24761;SDS011;12865;51.934;10.330;2023-05-17T00:22:58;9.88;;;3.72;;
24761;SDS011;12865;51.934;10.330;2023-05-17T00:25:45;13.25;;;3.60;;
24761;SDS011;12865;51.934;10.330;2023-05-17T00:28:31;13.52;;;4.10;;
24761;SDS011;12865;51.934;10.330;2023-05-17T00:31:16;10.52;;;3.83;;
24761;SDS011;12865;51.934;10.330;2023-05-17T00:34:02;9.88;;;3.88;;
24761;SDS011;12865;51.934;10.330;2023-05-17T00:36:47;9.13;;;3.97;;
24761;SDS011;12865;51.934;10.330;2023-05-17T00:39:33;8.20;;;3.83;;
24761;SDS011;12865;51.934;10.330;2023-05-17T00:42:19;12.52;;;4.10;;
24761;SDS011;12865;51.934;10.330;2023-05-17T00:45:05;11.40;;;4.00;;
24761;SDS011;12865;51.934;10.330;2023-05-17T00:47:51;14.25;;;4.05;;
24761;SDS011;12865;51.934;10.330;2023-05-17T00:50:36;9.23;;;3.40;;
24761;SDS011;12865;51.934;10.330;2023-05-17T00:53:22;10.93;;;4.10;;
24761;SDS011;12865;51.934;10.330;2023-05-17T00:56:08;13.38;;;4.20;;
24761;SDS011;12865;51.934;10.330;2023-05-17T00:58:54;14.02;;;4.07;;
24761;SDS011;12865;51.934;10.330;2023-05-17T01:01:40;13.85;;;4.50;;
24761;SDS011;12865;51.934;10.330;2023-05-17T01:04:27;9.70;;;3.90;;
24761;SDS011;12865;51.934;10.330;2023-05-17T01:07:14;10.07;;;3.85;;
24761;SDS011;12865;51.934;10.330;2023-05-17T01:10:00;10.35;;;4.20;;
24761;SDS011;12865;51.934;10.330;2023-05-17T01:12:54;14.10;;;3.95;;
24761;SDS011;12865;51.934;10.330;2023-05-17T01:15:49;14.43;;;4.95;;
24761;SDS011;12865;51.934;10.330;2023-05-17T01:18:45;10.63;;;4.35;;
24761;SDS011;12865;51.934;10.330;2023-05-17T01:28:19;11.88;;;4.82;;
24761;SDS011;12865;51.934;10.330;2023-05-17T01:31:07;12.43;;;4.95;;
24761;SDS011;12865;51.934;10.330;2023-05-17T01:33:53;16.15;;;4.82;;
24761;SDS011;12865;51.934;10.330;2023-05-17T01:36:42;13.52;;;5.22;;
24761;SDS011;12865;51.934;10.330;2023-05-17T01:39:29;16.83;;;4.82;;
24761;SDS011;12865;51.934;10.330;2023-05-17T01:42:22;8.65;;;4.60;;
24761;SDS011;12865;51.934;10.330;2023-05-17T01:45:15;14.13;;;4.55;;
24761;SDS011;12865;51.934;10.330;2023-05-17T01:48:29;17.25;;;5.25;;
24761;SDS011;12865;51.934;10.330;2023-05-17T01:51:19;17.00;;;5.22;;
24761;SDS011;12865;51.934;10.330;2023-05-17T01:54:08;16.70;;;6.05;;
24761;SDS011;12865;51.934;10.330;2023-05-17T01:56:57;15.52;;;5.10;;
24761;SDS011;12865;51.934;10.330;2023-05-17T01:59:43;12.93;;;4.70;;
24761;SDS011;12865;51.934;10.330;2023-05-17T02:02:30;16.25;;;5.45;;
24761;SDS011;12865;51.934;10.330;2023-05-17T02:05:15;18.08;;;5.03;;
24761;SDS011;12865;51.934;10.330;2023-05-17T02:08:01;11.57;;;4.80;;
24761;SDS011;12865;51.934;10.330;2023-05-17T02:10:47;15.15;;;4.60;;
24761;SDS011;12865;51.934;10.330;2023-05-17T02:13:32;15.77;;;4.75;;
24761;SDS011;12865;51.934;10.330;2023-05-17T02:16:18;17.77;;;5.40;;
24761;SDS011;12865;51.934;10.330;2023-05-17T02:19:04;17.85;;;5.15;;
24761;SDS011;12865;51.934;10.330;2023-05-17T02:21:51;13.43;;;5.80;;
24761;SDS011;12865;51.934;10.330;2023-05-17T02:24:37;14.48;;;5.10;;
24761;SDS011;12865;51.934;10.330;2023-05-17T02:27:22;16.55;;;4.85;;
24761;SDS011;12865;51.934;10.330;2023-05-17T02:30:08;12.50;;;4.82;;
24761;SDS011;12865;51.934;10.330;2023-05-17T02:32:54;18.58;;;4.95;;
24761;SDS011;12865;51.934;10.330;2023-05-17T02:35:41;12.15;;;4.93;;
24761;SDS011;12865;51.934;10.330;2023-05-17T02:38:26;15.05;;;4.40;;
24761;SDS011;12865;51.934;10.330;2023-05-17T02:41:12;12.73;;;5.00;;
24761;SDS011;12865;51.934;10.330;2023-05-17T02:43:57;14.93;;;5.07;;
24761;SDS011;12865;51.934;10.330;2023-05-17T02:46:43;19.00;;;4.90;;
24761;SDS011;12865;51.934;10.330;2023-05-17T02:49:29;13.45;;;4.55;;
24761;SDS011;12865;51.934;10.330;2023-05-17T02:52:14;13.25;;;4.40;;
24761;SDS011;12865;51.934;10.330;2023-05-17T02:55:00;12.73;;;4.93;;
24761;SDS011;12865;51.934;10.330;2023-05-17T02:57:46;14.50;;;4.20;;
24761;SDS011;12865;51.934;10.330;2023-05-17T03:00:32;18.58;;;5.15;;
24761;SDS011;12865;51.934;10.330;2023-05-17T03:03:17;12.00;;;4.97;;
24761;SDS011;12865;51.934;10.330;2023-05-17T03:06:03;14.77;;;5.18;;
24761;SDS011;12865;51.934;10.330;2023-05-17T03:08:49;15.50;;;4.88;;
24761;SDS011;12865;51.934;10.330;2023-05-17T03:11:35;13.68;;;5.13;;
24761;SDS011;12865;51.934;10.330;2023-05-17T03:14:20;15.93;;;5.13;;
24761;SDS011;12865;51.934;10.330;2023-05-17T03:17:06;15.55;;;5.25;;
24761;SDS011;12865;51.934;10.330;2023-05-17T03:19:52;14.45;;;5.70;;
24761;SDS011;12865;51.934;10.330;2023-05-17T03:22:37;19.35;;;5.15;;
24761;SDS011;12865;51.934;10.330;2023-05-17T03:25:23;13.38;;;4.85;;
24761;SDS011;12865;51.934;10.330;2023-05-17T03:28:09;11.60;;;4.90;;
24761;SDS011;12865;51.934;10.330;2023-05-17T03:30:54;12.63;;;4.90;;
24761;SDS011;12865;51.934;10.330;2023-05-17T03:33:40;18.17;;;4.72;;
24761;SDS011;12865;51.934;10.330;2023-05-17T03:36:26;9.25;;;4.60;;
24761;SDS011;12865;51.934;10.330;2023-05-17T03:39:11;20.23;;;5.45;;
24761;SDS011;12865;51.934;10.330;2023-05-17T03:41:57;14.10;;;4.80;;
24761;SDS011;12865;51.934;10.330;2023-05-17T03:44:43;19.80;;;5.45;;
24761;SDS011;12865;51.934;10.330;2023-05-17T03:47:28;14.50;;;5.50;;
24761;SDS011;12865;51.934;10.330;2023-05-17T03:50:14;19.52;;;5.75;;
24761;SDS011;12865;51.934;10.330;2023-05-17T03:53:00;15.02;;;5.32;;
24761;SDS011;12865;51.934;10.330;2023-05-17T03:55:46;15.25;;;4.90;;
24761;SDS011;12865;51.934;10.330;2023-05-17T03:58:31;14.10;;;5.15;;
24761;SDS011;12865;51.934;10.330;2023-05-17T04:01:17;14.07;;;5.63;;
24761;SDS011;12865;51.934;10.330;2023-05-17T04:04:04;17.40;;;5.93;;
24761;SDS011;12865;51.934;10.330;2023-05-17T04:06:50;15.32;;;5.13;;
24761;SDS011;12865;51.934;10.330;2023-05-17T04:09:36;17.23;;;6.00;;
24761;SDS011;12865;51.934;10.330;2023-05-17T04:12:21;15.48;;;5.40;;
24761;SDS011;12865;51.934;10.330;2023-05-17T04:15:07;20.13;;;6.45;;
24761;SDS011;12865;51.934;10.330;2023-05-17T04:17:53;17.80;;;5.43;;
24761;SDS011;12865;51.934;10.330;2023-05-17T04:20:39;11.65;;;5.30;;
24761;SDS011;12865;51.934;10.330;2023-05-17T04:23:25;13.48;;;5.13;;
24761;SDS011;12865;51.934;10.330;2023-05-17T04:26:10;13.98;;;5.70;;
24761;SDS011;12865;51.934;10.330;2023-05-17T04:28:56;13.48;;;6.03;;
24761;SDS011;12865;51.934;10.330;2023-05-17T04:31:42;14.90;;;5.43;;
24761;SDS011;12865;51.934;10.330;2023-05-17T04:34:27;12.60;;;5.05;;
24761;SDS011;12865;51.934;10.330;2023-05-17T04:37:14;13.43;;;5.60;;
24761;SDS011;12865;51.934;10.330;2023-05-17T04:40:01;18.25;;;5.25;;
24761;SDS011;12865;51.934;10.330;2023-05-17T04:42:46;13.73;;;5.45;;
24761;SDS011;12865;51.934;10.330;2023-05-17T04:45:32;14.48;;;5.63;;
24761;SDS011;12865;51.934;10.330;2023-05-17T04:48:18;13.43;;;5.28;;
24761;SDS011;12865;51.934;10.330;2023-05-17T04:51:04;17.02;;;5.22;;
24761;SDS011;12865;51.934;10.330;2023-05-17T04:53:50;14.02;;;4.82;;
24761;SDS011;12865;51.934;10.330;2023-05-17T04:56:36;13.82;;;5.47;;
24761;SDS011;12865;51.934;10.330;2023-05-17T04:59:21;11.85;;;4.65;;
24761;SDS011;12865;51.934;10.330;2023-05-17T05:02:07;14.57;;;4.95;;
24761;SDS011;12865;51.934;10.330;2023-05-17T05:04:53;15.48;;;5.32;;
24761;SDS011;12865;51.934;10.330;2023-05-17T05:07:38;10.20;;;4.90;;
24761;SDS011;12865;51.934;10.330;2023-05-17T05:10:24;14.65;;;4.97;;
24761;SDS011;12865;51.934;10.330;2023-05-17T05:13:12;16.38;;;5.53;;
24761;SDS011;12865;51.934;10.330;2023-05-17T05:15:58;20.67;;;4.93;;
24761;SDS011;12865;51.934;10.330;2023-05-17T05:18:44;10.48;;;4.80;;
24761;SDS011;12865;51.934;10.330;2023-05-17T05:21:29;16.65;;;5.00;;
24761;SDS011;12865;51.934;10.330;2023-05-17T05:24:15;17.23;;;5.45;;
24761;SDS011;12865;51.934;10.330;2023-05-17T05:27:01;15.30;;;4.43;;
24761;SDS011;12865;51.934;10.330;2023-05-17T05:29:46;13.27;;;4.32;;
24761;SDS011;12865;51.934;10.330;2023-05-17T05:32:32;15.32;;;4.63;;
24761;SDS011;12865;51.934;10.330;2023-05-17T05:35:18;15.73;;;3.95;;
24761;SDS011;12865;51.934;10.330;2023-05-17T05:38:04;15.30;;;3.85;;
24761;SDS011;12865;51.934;10.330;2023-05-17T05:40:49;20.10;;;4.30;;
24761;SDS011;12865;51.934;10.330;2023-05-17T05:43:35;15.75;;;4.95;;
24761;SDS011;12865;51.934;10.330;2023-05-17T05:46:22;16.00;;;4.53;;
24761;SDS011;12865;51.934;10.330;2023-05-17T05:49:07;18.08;;;4.93;;
24761;SDS011;12865;51.934;10.330;2023-05-17T05:51:53;17.05;;;4.63;;
24761;SDS011;12865;51.934;10.330;2023-05-17T05:54:39;17.92;;;4.55;;
24761;SDS011;12865;51.934;10.330;2023-05-17T05:57:24;17.52;;;4.40;;
24761;SDS011;12865;51.934;10.330;2023-05-17T06:00:10;12.05;;;4.15;;
24761;SDS011;12865;51.934;10.330;2023-05-17T06:02:56;20.27;;;4.30;;
24761;SDS011;12865;51.934;10.330;2023-05-17T06:05:42;19.63;;;5.22;;
24761;SDS011;12865;51.934;10.330;2023-05-17T06:08:28;17.00;;;3.72;;
24761;SDS011;12865;51.934;10.330;2023-05-17T06:11:14;16.98;;;3.58;;
24761;SDS011;12865;51.934;10.330;2023-05-17T06:13:59;15.43;;;3.92;;
24761;SDS011;12865;51.934;10.330;2023-05-17T06:16:45;14.65;;;4.53;;
24761;SDS011;12865;51.934;10.330;2023-05-17T06:19:32;12.88;;;3.30;;
24761;SDS011;12865;51.934;10.330;2023-05-17T06:22:18;20.35;;;3.97;;
24761;SDS011;12865;51.934;10.330;2023-05-17T06:25:04;19.77;;;4.60;;
24761;SDS011;12865;51.934;10.330;2023-05-17T06:27:50;19.70;;;3.72;;
24761;SDS011;12865;51.934;10.330;2023-05-17T06:30:35;21.15;;;5.18;;
24761;SDS011;12865;51.934;10.330;2023-05-17T06:33:21;16.50;;;3.28;;
24761;SDS011;12865;51.934;10.330;2023-05-17T06:36:07;14.18;;;3.58;;
24761;SDS011;12865;51.934;10.330;2023-05-17T06:38:53;15.82;;;3.42;;
24761;SDS011;12865;51.934;10.330;2023-05-17T06:41:38;18.27;;;3.60;;
24761;SDS011;12865;51.934;10.330;2023-05-17T06:44:24;14.13;;;3.95;;
24761;SDS011;12865;51.934;10.330;2023-05-17T06:47:09;17.20;;;4.63;;
24761;SDS011;12865;51.934;10.330;2023-05-17T06:49:55;19.17;;;4.05;;
24761;SDS011;12865;51.934;10.330;2023-05-17T06:52:41;13.75;;;3.20;;
24761;SDS011;12865;51.934;10.330;2023-05-17T06:55:27;15.25;;;3.60;;
24761;SDS011;12865;51.934;10.330;2023-05-17T06:58:12;14.18;;;3.65;;
24761;SDS011;12865;51.934;10.330;2023-05-17T07:00:58;19.73;;;3.30;;
24761;SDS011;12865;51.934;10.330;2023-05-17T07:03:44;10.95;;;3.28;;
24761;SDS011;12865;51.934;10.330;2023-05-17T07:06:29;6.57;;;2.78;;
24761;SDS011;12865;51.934;10.330;2023-05-17T07:09:15;12.25;;;3.20;;
24761;SDS011;12865;51.934;10.330;2023-05-17T07:12:03;14.27;;;3.30;;
24761;SDS011;12865;51.934;10.330;2023-05-17T07:14:50;15.52;;;3.80;;
24761;SDS011;12865;51.934;10.330;2023-05-17T07:17:35;16.35;;;3.40;;
24761;SDS011;12865;51.934;10.330;2023-05-17T07:20:21;16.15;;;3.67;;
24761;SDS011;12865;51.934;10.330;2023-05-17T07:23:07;12.55;;;3.15;;
24761;SDS011;12865;51.934;10.330;2023-05-17T07:25:53;11.85;;;3.33;;
24761;SDS011;12865;51.934;10.330;2023-05-17T07:28:39;10.13;;;2.88;;
24761;SDS011;12865;51.934;10.330;2023-05-17T07:31:24;11.38;;;2.97;;
24761;SDS011;12865;51.934;10.330;2023-05-17T07:34:10;12.00;;;3.35;;
24761;SDS011;12865;51.934;10.330;2023-05-17T07:36:56;16.25;;;3.28;;
24761;SDS011;12865;51.934;10.330;2023-05-17T07:39:41;16.23;;;3.00;;
24761;SDS011;12865;51.934;10.330;2023-05-17T07:42:27;12.07;;;3.13;;
24761;SDS011;12865;51.934;10.330;2023-05-17T07:45:13;11.10;;;3.33;;
24761;SDS011;12865;51.934;10.330;2023-05-17T07:47:59;16.52;;;3.47;;
24761;SDS011;12865;51.934;10.330;2023-05-17T07:50:44;13.50;;;2.83;;
24761;SDS011;12865;51.934;10.330;2023-05-17T07:53:31;11.30;;;3.10;;
24761;SDS011;12865;51.934;10.330;2023-05-17T07:56:16;12.43;;;3.72;;
24761;SDS011;12865;51.934;10.330;2023-05-17T07:59:02;10.90;;;2.95;;
24761;SDS011;12865;51.934;10.330;2023-05-17T08:01:48;9.57;;;3.58;;
24761;SDS011;12865;51.934;10.330;2023-05-17T08:04:33;11.57;;;2.90;;
24761;SDS011;12865;51.934;10.330;2023-05-17T08:07:19;11.00;;;3.40;;
24761;SDS011;12865;51.934;10.330;2023-05-17T08:10:05;14.15;;;2.40;;
24761;SDS011;12865;51.934;10.330;2023-05-17T08:12:51;7.45;;;2.47;;
24761;SDS011;12865;51.934;10.330;2023-05-17T08:15:37;15.35;;;2.45;;
24761;SDS011;12865;51.934;10.330;2023-05-17T08:18:23;9.65;;;2.38;;
24761;SDS011;12865;51.934;10.330;2023-05-17T08:21:09;9.70;;;2.88;;
24761;SDS011;12865;51.934;10.330;2023-05-17T08:23:55;12.23;;;2.95;;
24761;SDS011;12865;51.934;10.330;2023-05-17T08:26:41;6.95;;;2.70;;
24761;SDS011;12865;51.934;10.330;2023-05-17T08:29:26;15.68;;;2.45;;
24761;SDS011;12865;51.934;10.330;2023-05-17T08:32:12;15.30;;;3.05;;
24761;SDS011;12865;51.934;10.330;2023-05-17T08:34:58;13.35;;;2.47;;
24761;SDS011;12865;51.934;10.330;2023-05-17T08:37:43;9.65;;;2.63;;
24761;SDS011;12865;51.934;10.330;2023-05-17T08:40:29;10.48;;;2.58;;
24761;SDS011;12865;51.934;10.330;2023-05-17T08:43:15;9.45;;;2.70;;
24761;SDS011;12865;51.934;10.330;2023-05-17T08:46:01;16.80;;;2.88;;
24761;SDS011;12865;51.934;10.330;2023-05-17T08:48:48;7.82;;;2.80;;
24761;SDS011;12865;51.934;10.330;2023-05-17T08:51:36;10.88;;;2.45;;
24761;SDS011;12865;51.934;10.330;2023-05-17T08:54:22;9.77;;;2.65;;
24761;SDS011;12865;51.934;10.330;2023-05-17T08:57:07;10.05;;;2.45;;
24761;SDS011;12865;51.934;10.330;2023-05-17T08:59:57;9.75;;;2.75;;
24761;SDS011;12865;51.934;10.330;2023-05-17T09:02:45;13.00;;;2.80;;
24761;SDS011;12865;51.934;10.330;2023-05-17T09:05:31;10.48;;;2.70;;
24761;SDS011;12865;51.934;10.330;2023-05-17T09:08:17;7.57;;;2.72;;
24761;SDS011;12865;51.934;10.330;2023-05-17T09:11:04;11.00;;;2.75;;
24761;SDS011;12865;51.934;10.330;2023-05-17T09:13:50;12.38;;;2.30;;
24761;SDS011;12865;51.934;10.330;2023-05-17T09:16:36;9.95;;;2.17;;
24761;SDS011;12865;51.934;10.330;2023-05-17T09:19:22;12.32;;;2.70;;
24761;SDS011;12865;51.934;10.330;2023-05-17T09:22:08;10.23;;;2.35;;
24761;SDS011;12865;51.934;10.330;2023-05-17T09:24:53;8.00;;;2.10;;
24761;SDS011;12865;51.934;10.330;2023-05-17T09:27:39;11.27;;;2.10;;
24761;SDS011;12865;51.934;10.330;2023-05-17T09:30:26;10.82;;;2.10;;
24761;SDS011;12865;51.934;10.330;2023-05-17T09:33:13;12.48;;;2.17;;
24761;SDS011;12865;51.934;10.330;2023-05-17T09:35:59;4.82;;;2.33;;
24761;SDS011;12865;51.934;10.330;2023-05-17T09:38:56;7.00;;;1.70;;
24761;SDS011;12865;51.934;10.330;2023-05-17T09:41:44;8.02;;;1.73;;
24761;SDS011;12865;51.934;10.330;2023-05-17T09:44:31;9.68;;;2.95;;
24761;SDS011;12865;51.934;10.330;2023-05-17T09:47:44;10.80;;;2.30;;
24761;SDS011;12865;51.934;10.330;2023-05-17T09:50:29;8.40;;;2.20;;
24761;SDS011;12865;51.934;10.330;2023-05-17T09:53:21;8.23;;;2.30;;
24761;SDS011;12865;51.934;10.330;2023-05-17T09:58:54;8.90;;;2.15;;
24761;SDS011;12865;51.934;10.330;2023-05-17T10:01:40;7.47;;;2.03;;
24761;SDS011;12865;51.934;10.330;2023-05-17T10:04:28;8.15;;;1.98;;
24761;SDS011;12865;51.934;10.330;2023-05-17T10:07:18;8.57;;;2.00;;
24761;SDS011;12865;51.934;10.330;2023-05-17T10:10:05;9.50;;;2.13;;
24761;SDS011;12865;51.934;10.330;2023-05-17T10:12:52;8.93;;;2.38;;
24761;SDS011;12865;51.934;10.330;2023-05-17T10:15:38;8.15;;;2.08;;
24761;SDS011;12865;51.934;10.330;2023-05-17T10:18:25;7.35;;;2.92;;
24761;SDS011;12865;51.934;10.330;2023-05-17T10:21:12;9.50;;;2.22;;
24761;SDS011;12865;51.934;10.330;2023-05-17T10:24:02;11.57;;;2.53;;
24761;SDS011;12865;51.934;10.330;2023-05-17T10:29:37;8.85;;;2.05;;
24761;SDS011;12865;51.934;10.330;2023-05-17T10:32:23;7.97;;;2.30;;
24761;SDS011;12865;51.934;10.330;2023-05-17T10:35:11;9.80;;;2.40;;
24761;SDS011;12865;51.934;10.330;2023-05-17T10:37:59;10.00;;;2.78;;
24761;SDS011;12865;51.934;10.330;2023-05-17T10:40:45;9.82;;;2.67;;
24761;SDS011;12865;51.934;10.330;2023-05-17T10:43:31;9.60;;;2.63;;
24761;SDS011;12865;51.934;10.330;2023-05-17T10:46:18;14.27;;;2.80;;
24761;SDS011;12865;51.934;10.330;2023-05-17T10:49:07;9.82;;;2.50;;
24761;SDS011;12865;51.934;10.330;2023-05-17T10:51:53;6.40;;;2.85;;
24761;SDS011;12865;51.934;10.330;2023-05-17T10:54:41;4.78;;;2.00;;
24761;SDS011;12865;51.934;10.330;2023-05-17T10:57:32;8.40;;;2.75;;
24761;SDS011;12865;51.934;10.330;2023-05-17T11:00:19;9.38;;;2.72;;
24761;SDS011;12865;51.934;10.330;2023-05-17T11:06:11;9.57;;;2.28;;
24761;SDS011;12865;51.934;10.330;2023-05-17T11:09:15;11.32;;;3.00;;
24761;SDS011;12865;51.934;10.330;2023-05-17T11:12:02;13.88;;;3.03;;
24761;SDS011;12865;51.934;10.330;2023-05-17T11:14:52;11.27;;;2.80;;
24761;SDS011;12865;51.934;10.330;2023-05-17T11:20:29;10.55;;;2.72;;
24761;SDS011;12865;51.934;10.330;2023-05-17T11:23:16;9.35;;;2.53;;
24761;SDS011;12865;51.934;10.330;2023-05-17T11:29:08;12.45;;;2.88;;
24761;SDS011;12865;51.934;10.330;2023-05-17T11:31:55;12.43;;;2.92;;
24761;SDS011;12865;51.934;10.330;2023-05-17T11:34:40;8.80;;;3.00;;
24761;SDS011;12865;51.934;10.330;2023-05-17T11:37:27;9.02;;;2.50;;
24761;SDS011;12865;51.934;10.330;2023-05-17T11:40:17;10.18;;;2.92;;
24761;SDS011;12865;51.934;10.330;2023-05-17T11:43:17;13.95;;;3.65;;
24761;SDS011;12865;51.934;10.330;2023-05-17T11:46:04;8.05;;;2.83;;
24761;SDS011;12865;51.934;10.330;2023-05-17T11:48:51;9.68;;;2.65;;
24761;SDS011;12865;51.934;10.330;2023-05-17T11:51:37;9.35;;;2.70;;
24761;SDS011;12865;51.934;10.330;2023-05-17T11:54:24;12.18;;;2.70;;
24761;SDS011;12865;51.934;10.330;2023-05-17T11:57:10;8.35;;;2.80;;
24761;SDS011;12865;51.934;10.330;2023-05-17T12:00:01;10.00;;;2.67;;
24761;SDS011;12865;51.934;10.330;2023-05-17T12:02:49;10.88;;;2.60;;
24761;SDS011;12865;51.934;10.330;2023-05-17T12:05:35;12.63;;;2.70;;
24761;SDS011;12865;51.934;10.330;2023-05-17T12:08:20;10.55;;;2.90;;
24761;SDS011;12865;51.934;10.330;2023-05-17T12:11:06;9.95;;;2.75;;
24761;SDS011;12865;51.934;10.330;2023-05-17T12:13:55;11.15;;;2.70;;
24761;SDS011;12865;51.934;10.330;2023-05-17T12:16:41;9.07;;;2.88;;
24761;SDS011;12865;51.934;10.330;2023-05-17T12:19:28;7.72;;;2.58;;
24761;SDS011;12865;51.934;10.330;2023-05-17T12:22:16;11.15;;;2.50;;
24761;SDS011;12865;51.934;10.330;2023-05-17T12:25:02;10.15;;;2.35;;
24761;SDS011;12865;51.934;10.330;2023-05-17T12:27:48;10.32;;;2.80;;
24761;SDS011;12865;51.934;10.330;2023-05-17T12:30:35;9.20;;;2.60;;
24761;SDS011;12865;51.934;10.330;2023-05-17T12:33:20;13.90;;;2.50;;
24761;SDS011;12865;51.934;10.330;2023-05-17T12:36:07;10.90;;;2.50;;
24761;SDS011;12865;51.934;10.330;2023-05-17T12:38:54;8.95;;;2.80;;
24761;SDS011;12865;51.934;10.330;2023-05-17T12:41:41;10.73;;;2.30;;
24761;SDS011;12865;51.934;10.330;2023-05-17T12:44:27;14.18;;;3.65;;
24761;SDS011;12865;51.934;10.330;2023-05-17T12:47:13;10.00;;;2.65;;
24761;SDS011;12865;51.934;10.330;2023-05-17T12:49:59;11.68;;;2.60;;
24761;SDS011;12865;51.934;10.330;2023-05-17T12:52:47;7.70;;;3.15;;
24761;SDS011;12865;51.934;10.330;2023-05-17T12:55:34;6.55;;;2.25;;
24761;SDS011;12865;51.934;10.330;2023-05-17T12:58:21;7.45;;;2.20;;
24761;SDS011;12865;51.934;10.330;2023-05-17T13:01:06;10.30;;;2.70;;
24761;SDS011;12865;51.934;10.330;2023-05-17T13:03:55;11.18;;;2.70;;
24761;SDS011;12865;51.934;10.330;2023-05-17T13:06:50;6.13;;;2.53;;
24761;SDS011;12865;51.934;10.330;2023-05-17T13:09:46;6.90;;;2.63;;
24761;SDS011;12865;51.934;10.330;2023-05-17T13:12:32;7.57;;;2.83;;
24761;SDS011;12865;51.934;10.330;2023-05-17T13:15:26;9.68;;;2.40;;
24761;SDS011;12865;51.934;10.330;2023-05-17T13:18:13;7.82;;;2.30;;
24761;SDS011;12865;51.934;10.330;2023-05-17T13:21:00;7.60;;;2.78;;
24761;SDS011;12865;51.934;10.330;2023-05-17T13:23:47;7.20;;;2.08;;
24761;SDS011;12865;51.934;10.330;2023-05-17T13:26:34;8.07;;;2.03;;
24761;SDS011;12865;51.934;10.330;2023-05-17T13:29:19;10.50;;;2.60;;
24761;SDS011;12865;51.934;10.330;2023-05-17T13:32:05;8.32;;;2.67;;
24761;SDS011;12865;51.934;10.330;2023-05-17T13:34:52;7.55;;;2.70;;
24761;SDS011;12865;51.934;10.330;2023-05-17T13:37:38;11.05;;;2.35;;
24761;SDS011;12865;51.934;10.330;2023-05-17T13:40:24;8.15;;;2.50;;
24761;SDS011;12865;51.934;10.330;2023-05-17T13:43:09;9.57;;;2.58;;
24761;SDS011;12865;51.934;10.330;2023-05-17T13:45:55;9.50;;;2.28;;
24761;SDS011;12865;51.934;10.330;2023-05-17T13:48:43;6.70;;;2.30;;
24761;SDS011;12865;51.934;10.330;2023-05-17T13:51:31;9.15;;;2.58;;
24761;SDS011;12865;51.934;10.330;2023-05-17T13:54:21;9.38;;;2.20;;
24761;SDS011;12865;51.934;10.330;2023-05-17T13:57:07;8.50;;;2.33;;
24761;SDS011;12865;51.934;10.330;2023-05-17T13:59:53;6.00;;;2.47;;
24761;SDS011;12865;51.934;10.330;2023-05-17T14:02:38;8.70;;;2.88;;
24761;SDS011;12865;51.934;10.330;2023-05-17T14:05:24;10.38;;;2.47;;
24761;SDS011;12865;51.934;10.330;2023-05-17T14:08:11;9.52;;;2.75;;
24761;SDS011;12865;51.934;10.330;2023-05-17T14:10:57;11.05;;;2.67;;
24761;SDS011;12865;51.934;10.330;2023-05-17T14:13:42;6.10;;;2.10;;
24761;SDS011;12865;51.934;10.330;2023-05-17T14:16:28;10.90;;;2.45;;
24761;SDS011;12865;51.934;10.330;2023-05-17T14:19:14;8.63;;;2.17;;
24761;SDS011;12865;51.934;10.330;2023-05-17T14:21:59;7.63;;;2.50;;
24761;SDS011;12865;51.934;10.330;2023-05-17T14:24:45;7.32;;;2.30;;
24761;SDS011;12865;51.934;10.330;2023-05-17T14:27:31;6.68;;;2.00;;
24761;SDS011;12865;51.934;10.330;2023-05-17T14:30:16;8.07;;;2.25;;
24761;SDS011;12865;51.934;10.330;2023-05-17T14:33:02;6.22;;;1.70;;
24761;SDS011;12865;51.934;10.330;2023-05-17T14:35:48;7.57;;;1.85;;
24761;SDS011;12865;51.934;10.330;2023-05-17T14:38:33;5.10;;;1.85;;
24761;SDS011;12865;51.934;10.330;2023-05-17T14:41:19;4.05;;;1.67;;
24761;SDS011;12865;51.934;10.330;2023-05-17T14:44:06;6.63;;;1.90;;
24761;SDS011;12865;51.934;10.330;2023-05-17T14:46:51;6.72;;;1.75;;
24761;SDS011;12865;51.934;10.330;2023-05-17T14:49:37;6.22;;;2.28;;
24761;SDS011;12865;51.934;10.330;2023-05-17T14:52:23;8.25;;;2.03;;
24761;SDS011;12865;51.934;10.330;2023-05-17T14:55:08;4.07;;;2.20;;
24761;SDS011;12865;51.934;10.330;2023-05-17T14:57:55;4.80;;;1.92;;
24761;SDS011;12865;51.934;10.330;2023-05-17T15:00:42;8.68;;;2.20;;
24761;SDS011;12865;51.934;10.330;2023-05-17T15:03:31;4.97;;;1.95;;
24761;SDS011;12865;51.934;10.330;2023-05-17T15:06:17;6.13;;;2.15;;
24761;SDS011;12865;51.934;10.330;2023-05-17T15:09:08;7.65;;;2.33;;
24761;SDS011;12865;51.934;10.330;2023-05-17T15:11:57;7.03;;;2.50;;
24761;SDS011;12865;51.934;10.330;2023-05-17T15:14:43;5.38;;;2.03;;
24761;SDS011;12865;51.934;10.330;2023-05-17T15:17:30;5.40;;;1.88;;
24761;SDS011;12865;51.934;10.330;2023-05-17T15:20:16;10.00;;;2.20;;
24761;SDS011;12865;51.934;10.330;2023-05-17T15:23:03;7.22;;;2.10;;
24761;SDS011;12865;51.934;10.330;2023-05-17T15:25:48;7.32;;;1.95;;
24761;SDS011;12865;51.934;10.330;2023-05-17T15:28:34;7.20;;;2.53;;
24761;SDS011;12865;51.934;10.330;2023-05-17T15:31:20;5.30;;;1.73;;
24761;SDS011;12865;51.934;10.330;2023-05-17T15:34:06;7.45;;;2.20;;
24761;SDS011;12865;51.934;10.330;2023-05-17T15:36:55;8.05;;;1.60;;
24761;SDS011;12865;51.934;10.330;2023-05-17T15:39:42;6.47;;;2.25;;
24761;SDS011;12865;51.934;10.330;2023-05-17T15:42:28;6.28;;;1.67;;
24761;SDS011;12865;51.934;10.330;2023-05-17T15:45:13;6.97;;;1.75;;
24761;SDS011;12865;51.934;10.330;2023-05-17T15:47:59;6.18;;;1.80;;
24761;SDS011;12865;51.934;10.330;2023-05-17T15:50:46;5.88;;;2.38;;
24761;SDS011;12865;51.934;10.330;2023-05-17T15:53:31;8.68;;;2.47;;
24761;SDS011;12865;51.934;10.330;2023-05-17T15:56:17;5.25;;;1.80;;
24761;SDS011;12865;51.934;10.330;2023-05-17T15:59:05;5.50;;;1.80;;
24761;SDS011;12865;51.934;10.330;2023-05-17T16:01:51;7.15;;;1.88;;
24761;SDS011;12865;51.934;10.330;2023-05-17T16:04:37;6.40;;;1.95;;
24761;SDS011;12865;51.934;10.330;2023-05-17T16:07:23;10.20;;;2.42;;
24761;SDS011;12865;51.934;10.330;2023-05-17T16:10:10;4.78;;;1.77;;
24761;SDS011;12865;51.934;10.330;2023-05-17T16:12:56;9.65;;;2.72;;
24761;SDS011;12865;51.934;10.330;2023-05-17T16:15:42;7.93;;;2.38;;
24761;SDS011;12865;51.934;10.330;2023-05-17T16:18:27;5.72;;;2.03;;
24761;SDS011;12865;51.934;10.330;2023-05-17T16:21:15;8.20;;;1.80;;
24761;SDS011;12865;51.934;10.330;2023-05-17T16:24:01;8.25;;;1.90;;
24761;SDS011;12865;51.934;10.330;2023-05-17T16:26:48;6.85;;;1.75;;
24761;SDS011;12865;51.934;10.330;2023-05-17T16:29:36;8.82;;;2.15;;
24761;SDS011;12865;51.934;10.330;2023-05-17T16:32:24;7.40;;;1.90;;
24761;SDS011;12865;51.934;10.330;2023-05-17T16:35:09;6.82;;;2.05;;
24761;SDS011;12865;51.934;10.330;2023-05-17T16:37:56;9.88;;;3.15;;
24761;SDS011;12865;51.934;10.330;2023-05-17T16:40:42;5.68;;;1.98;;